createdAt,value
2022-10-04T00:13:36.623Z,7.63
2022-10-04T00:33:36.645Z,6.96
2022-10-04T00:53:36.576Z,6.93
2022-10-04T01:13:36.585Z,6.89
2022-10-04T01:33:36.608Z,6.50
2022-10-04T01:53:36.629Z,6.53
2022-10-04T02:13:36.553Z,6.35
2022-10-04T02:33:36.600Z,6.27
2022-10-04T02:53:36.593Z,6.38
2022-10-04T03:13:36.610Z,6.51
2022-10-04T03:33:36.552Z,6.13
2022-10-04T03:53:36.564Z,5.79
2022-10-04T04:13:36.572Z,5.96
2022-10-04T04:33:36.620Z,6.01
2022-10-04T04:53:36.519Z,6.17
2022-10-04T05:13:36.536Z,5.96
2022-10-04T05:33:36.553Z,6.05
2022-10-04T05:53:36.474Z,6.38
2022-10-04T06:13:36.532Z,6.83
2022-10-04T06:33:36.515Z,7.49
2022-10-04T06:53:36.543Z,7.92
2022-10-04T07:13:36.481Z,8.63
2022-10-04T07:33:36.509Z,9.19
2022-10-04T07:53:36.596Z,9.76
2022-10-04T08:13:36.509Z,10.14
2022-10-04T08:53:36.484Z,11.38
2022-10-04T09:13:36.398Z,12.33
2022-10-04T09:33:36.425Z,12.98
2022-10-04T09:53:36.374Z,13.51
2022-10-04T10:13:36.390Z,14.22
2022-10-04T10:33:36.300Z,14.67
2022-10-04T10:53:36.328Z,14.92
2022-10-04T11:13:36.297Z,15.38
2022-10-04T11:33:36.283Z,15.80
2022-10-04T11:53:36.206Z,15.94
2022-10-04T12:13:36.229Z,15.83
2022-10-04T12:33:36.310Z,15.66
2022-10-04T12:53:36.212Z,15.51
2022-10-04T13:13:36.116Z,15.79
2022-10-04T13:33:36.196Z,16.23
2022-10-04T13:53:36.164Z,16.11
2022-10-04T14:13:36.157Z,16.26
2022-10-04T14:33:36.055Z,16.26
2022-10-04T14:53:36.115Z,16.17
2022-10-04T15:13:35.988Z,15.94
2022-10-04T15:33:36.021Z,15.79
2022-10-04T15:53:35.954Z,15.66
2022-10-04T16:13:35.986Z,15.03
2022-10-04T16:33:35.916Z,14.37
2022-10-04T16:53:35.981Z,13.60
2022-10-04T17:13:35.905Z,12.92
2022-10-04T17:33:35.961Z,12.34
2022-10-04T17:53:35.821Z,11.89
2022-10-04T18:13:35.854Z,11.34
2022-10-04T18:33:35.872Z,10.87
2022-10-04T18:53:35.810Z,10.46
2022-10-04T19:13:35.825Z,10.21
2022-10-04T19:33:35.764Z,10.03
2022-10-04T19:53:35.785Z,9.59
2022-10-04T20:13:35.799Z,9.61
2022-10-04T20:33:35.745Z,9.41
2022-10-04T20:53:35.782Z,9.55
2022-10-04T21:13:35.813Z,9.42
2022-10-04T21:33:35.691Z,8.99
2022-10-04T21:53:35.716Z,9.07
2022-10-04T22:13:35.771Z,8.73
2022-10-04T22:33:35.660Z,8.63
2022-10-04T22:53:35.673Z,8.74
2022-10-04T23:13:35.696Z,8.37
2022-10-04T23:33:35.678Z,8.20
2022-10-04T23:53:35.637Z,7.97
